Time;durP1;ratioP1;P1;durP2;ratioP2;P2;SDS_P1;SDS_P2;PMS_P1;PMS_P2;Temp;Humidity;BMP_temperature;BMP_pressure;BME280_temperature;BME280_humidity;BME280_pressure;Samples;Min_cycle;Max_cycle;Signal;HPM_P1;HPM_P2
2021/05/14 00:00:12;;;;;;;2.45;0.73;;;14.10;91.30;14.00;98777.00;;;;343588;28;82451;-89
2021/05/14 00:00:25;;;;;;;3.80;0.73;;;14.10;91.40;14.10;98776.00;;;;340378;28;84430;-89
2021/05/14 00:00:37;;;;;;;3.15;0.40;;;14.10;91.30;14.10;98767.00;;;;340280;28;83736;-87
2021/05/14 00:00:49;;;;;;;3.85;0.60;;;14.10;91.40;14.10;98776.00;;;;341727;28;84570;-89
2021/05/14 00:01:01;;;;;;;2.60;0.50;;;14.10;91.40;14.10;98774.00;;;;340398;28;83441;-89
2021/05/14 00:01:13;;;;;;;2.22;0.47;;;14.10;91.30;14.10;98774.00;;;;342968;28;85609;-89
2021/05/14 00:01:25;;;;;;;1.83;0.40;;;14.10;91.30;14.10;98775.00;;;;341746;28;82350;-89
2021/05/14 00:01:37;;;;;;;1.92;0.50;;;14.10;91.30;14.10;98768.00;;;;340428;28;84332;-89
2021/05/14 00:01:50;;;;;;;1.40;0.50;;;14.10;91.30;13.80;98772.00;;;;340118;28;85730;-90
2021/05/14 00:02:03;;;;;;;0.90;0.40;;;14.10;91.40;13.70;98772.00;;;;341233;28;85736;-88
2021/05/14 00:02:15;;;;;;;1.05;0.45;;;14.10;91.50;13.70;98767.00;;;;338967;28;83384;-89
2021/05/14 00:02:27;;;;;;;1.45;0.55;;;14.00;91.50;13.60;98775.00;;;;341625;28;85431;-89
2021/05/14 00:02:39;;;;;;;2.40;0.60;;;14.00;91.60;13.70;98775.00;;;;340241;28;85132;-90
2021/05/14 00:02:51;;;;;;;2.45;0.50;;;14.00;91.70;13.80;98771.00;;;;342841;28;87498;-89
2021/05/14 00:03:03;;;;;;;1.80;0.40;;;14.00;91.60;13.80;98769.00;;;;343763;28;83496;-90
2021/05/14 00:03:15;;;;;;;1.48;0.50;;;14.00;91.60;13.80;98765.00;;;;341598;28;84164;-88
2021/05/14 00:03:26;;;;;;;1.80;0.57;;;14.00;91.60;13.80;98772.00;;;;342406;28;82869;-90
2021/05/14 00:03:38;;;;;;;3.90;0.80;;;13.90;91.60;13.80;98768.00;;;;340401;28;84641;-89
2021/05/14 00:03:50;;;;;;;4.15;0.80;;;13.90;91.60;13.70;98766.00;;;;338907;28;83469;-89
2021/05/14 00:04:03;;;;;;;2.58;0.45;;;13.90;91.70;13.50;98764.00;;;;344308;28;83905;-89
2021/05/14 00:04:16;;;;;;;1.75;0.40;;;13.90;91.80;13.40;98764.00;;;;342859;28;83513;-87
2021/05/14 00:04:28;;;;;;;1.40;0.50;;;13.80;92.00;13.40;98778.00;;;;341481;28;85463;-89
2021/05/14 00:04:39;;;;;;;1.10;0.50;;;13.80;92.10;13.50;98763.00;;;;343036;28;83507;-89
2021/05/14 00:04:51;;;;;;;1.20;0.40;;;13.70;92.00;13.60;98768.00;;;;340135;28;84547;-89
2021/05/14 00:05:04;;;;;;;1.10;0.40;;;13.70;92.10;13.50;98767.00;;;;341654;28;83768;-90
2021/05/14 00:05:16;;;;;;;0.95;0.35;;;13.70;92.20;13.70;98767.00;;;;341598;28;84794;-88
2021/05/14 00:05:28;;;;;;;1.80;0.55;;;13.70;92.10;13.60;98773.00;;;;338978;28;83370;-89
2021/05/14 00:05:39;;;;;;;2.30;0.70;;;13.70;92.10;13.70;98771.00;;;;341724;28;85296;-89
2021/05/14 00:05:51;;;;;;;2.25;0.60;;;13.70;92.00;13.80;98765.00;;;;341051;28;85508;-89
2021/05/14 00:06:03;;;;;;;1.73;0.50;;;13.70;92.00;13.80;98763.00;;;;341907;28;84713;-89
2021/05/14 00:06:15;;;;;;;1.40;0.40;;;13.70;91.90;13.90;98767.00;;;;337648;28;85573;-89
2021/05/14 00:06:27;;;;;;;0.98;0.38;;;13.70;91.90;13.90;98763.00;;;;342348;28;86438;-89
2021/05/14 00:06:39;;;;;;;1.05;0.47;;;13.70;92.00;13.90;98770.00;;;;340292;28;83615;-90
2021/05/14 00:06:51;;;;;;;1.13;0.43;;;13.70;91.90;13.90;98762.00;;;;340240;28;87715;-89
2021/05/14 00:07:03;;;;;;;1.65;0.30;;;13.70;92.00;13.90;98766.00;;;;341430;28;83378;-89
2021/05/14 00:07:16;;;;;;;2.22;0.30;;;13.80;92.00;13.80;98762.00;;;;338705;28;87868;-89
2021/05/14 00:07:28;;;;;;;2.15;0.43;;;13.80;92.10;13.80;98760.00;;;;338969;28;83435;-89
2021/05/14 00:07:39;;;;;;;2.05;0.50;;;13.80;92.10;13.90;98769.00;;;;341757;28;85177;-90
2021/05/14 00:07:51;;;;;;;1.88;0.50;;;13.80;92.00;13.80;98760.00;;;;343003;28;83463;-89
2021/05/14 00:08:04;;;;;;;1.70;0.40;;;13.80;92.10;13.90;98761.00;;;;341513;28;88772;-90
2021/05/14 00:08:15;;;;;;;1.75;0.38;;;13.80;92.10;13.90;98770.00;;;;338893;28;85171;-90
2021/05/14 00:08:27;;;;;;;1.40;0.30;;;13.80;92.10;13.90;98763.00;;;;342835;28;88806;-89
2021/05/14 00:08:39;;;;;;;1.27;0.30;;;13.80;92.10;13.80;98759.00;;;;344357;28;83515;-90
2021/05/14 00:08:51;;;;;;;0.88;0.32;;;13.80;92.20;13.80;98762.00;;;;340122;28;85971;-90
2021/05/14 00:09:03;;;;;;;1.00;0.40;;;13.80;92.30;13.90;98764.00;;;;343335;28;82450;-89
2021/05/14 00:09:15;;;;;;;1.10;0.50;;;13.80;92.10;14.00;98768.00;;;;342914;28;84992;-89
2021/05/14 00:09:27;;;;;;;1.40;0.50;;;13.80;92.10;13.90;98758.00;;;;343035;28;83512;-89
2021/05/14 00:09:39;;;;;;;2.13;0.50;;;13.80;92.10;13.90;98760.00;;;;341658;28;87398;-90
2021/05/14 00:09:51;;;;;;;3.78;0.30;;;13.80;92.10;13.80;98758.00;;;;342936;28;83792;-89
2021/05/14 00:10:04;;;;;;;3.40;0.30;;;13.80;92.20;13.80;98759.00;;;;341598;28;85450;-90
2021/05/14 00:10:18;;;;;;;1.08;0.30;;;13.80;92.20;13.80;98763.00;;;;341687;28;83391;-89
2021/05/14 00:10:30;;;;;;;1.10;0.43;;;13.80;92.10;14.00;98758.00;;;;340262;28;85372;-89
2021/05/14 00:10:42;;;;;;;1.33;0.55;;;13.80;92.10;14.00;98759.00;;;;340296;28;83412;-89
2021/05/14 00:10:54;;;;;;;1.65;0.50;;;13.80;92.00;14.10;98749.00;;;;341644;28;84826;-88
2021/05/14 00:11:06;;;;;;;1.70;0.47;;;13.80;92.00;14.10;98761.00;;;;341731;28;83341;-88
2021/05/14 00:11:18;;;;;;;1.65;0.40;;;13.80;92.00;14.10;98760.00;;;;338998;28;84242;-89
2021/05/14 00:11:30;;;;;;;2.03;0.40;;;13.90;92.00;14.10;98760.00;;;;340408;28;83412;-89
2021/05/14 00:11:43;;;;;;;2.00;0.50;;;13.90;92.00;14.10;98762.00;;;;343065;28;85720;-89
2021/05/14 00:11:54;;;;;;;1.58;0.50;;;13.90;91.90;14.10;98755.00;;;;340792;28;83282;-88
2021/05/14 00:12:07;;;;;;;2.13;0.68;;;13.90;91.90;14.10;98760.00;;;;340678;28;84578;-88
2021/05/14 00:12:19;;;;;;;2.28;0.55;;;13.90;92.10;14.00;98759.00;;;;340233;28;83457;-89
2021/05/14 00:12:31;;;;;;;1.88;0.70;;;13.90;92.00;14.10;98750.00;;;;341587;28;84548;-89
2021/05/14 00:12:43;;;;;;;2.20;0.60;;;13.90;92.00;14.00;98760.00;;;;340192;28;84249;-89
2021/05/14 00:12:56;;;;;;;1.95;0.57;;;13.90;92.00;14.10;98761.00;;;;341233;28;85402;-88
2021/05/14 00:13:08;;;;;;;1.63;0.47;;;13.90;92.10;14.00;98759.00;;;;339033;28;83650;-89
2021/05/14 00:13:20;;;;;;;1.42;0.40;;;13.90;92.00;14.10;98755.00;;;;341653;28;84791;-88
2021/05/14 00:13:32;;;;;;;1.40;0.30;;;13.90;91.90;14.10;98761.00;;;;338991;28;83388;-89
2021/05/14 00:13:44;;;;;;;1.10;0.30;;;13.90;91.80;14.10;98763.00;;;;341661;28;87270;-89
2021/05/14 00:13:59;;;;;;;1.13;0.30;;;13.90;91.80;14.10;98764.00;;;;340331;28;82489;-89
2021/05/14 00:14:11;;;;;;;1.33;0.52;;;14.00;91.80;14.10;98760.00;;;;341570;28;85145;-90
2021/05/14 00:14:23;;;;;;;1.40;0.60;;;14.00;91.70;14.00;98767.00;;;;341602;28;83696;-89
2021/05/14 00:14:34;;;;;;;1.40;0.50;;;14.00;91.70;14.10;98757.00;;;;342794;28;87265;-89
2021/05/14 00:14:46;;;;;;;1.40;0.50;;;13.90;91.60;14.00;98763.00;;;;343119;28;82637;-89
2021/05/14 00:14:58;;;;;;;1.50;0.50;;;14.00;91.60;14.10;98760.00;;;;342684;28;84337;-87
2021/05/14 00:15:10;;;;;;;2.13;0.60;;;14.00;91.50;14.10;98760.00;;;;343549;28;82452;-89
2021/05/14 00:15:22;;;;;;;2.00;0.57;;;14.00;91.60;14.10;98763.00;;;;340482;28;84315;-89
2021/05/14 00:15:34;;;;;;;1.83;0.50;;;14.00;91.50;14.10;98760.00;;;;341355;28;83500;-87
2021/05/14 00:15:46;;;;;;;1.70;0.40;;;14.00;91.50;13.90;98761.00;;;;341525;28;87081;-89
2021/05/14 00:15:58;;;;;;;1.77;0.50;;;14.00;91.50;13.80;98762.00;;;;340867;28;82778;-89
2021/05/14 00:16:10;;;;;;;1.30;0.50;;;14.00;91.50;13.80;98758.00;;;;340284;28;85411;-89
2021/05/14 00:16:22;;;;;;;1.90;0.43;;;13.90;91.50;14.00;98769.00;;;;341652;28;82993;-89
2021/05/14 00:16:34;;;;;;;2.00;0.30;;;14.00;91.40;13.90;98768.00;;;;340202;28;84633;-88
2021/05/14 00:16:46;;;;;;;2.25;0.40;;;14.00;91.40;13.80;98755.00;;;;341686;28;84428;-89
2021/05/14 00:16:58;;;;;;;1.45;0.40;;;14.00;91.50;13.70;98763.00;;;;340323;28;85041;-89
2021/05/14 00:17:10;;;;;;;1.35;0.43;;;14.00;91.50;13.70;98762.00;;;;341601;28;83186;-88
2021/05/14 00:17:22;;;;;;;1.27;0.40;;;13.90;91.50;13.70;98756.00;;;;343015;28;85411;-89
2021/05/14 00:17:35;;;;;;;1.20;0.40;;;13.90;91.60;13.70;98757.00;;;;341626;28;83385;-89
2021/05/14 00:17:47;;;;;;;1.80;0.40;;;13.90;91.50;13.70;98762.00;;;;343027;28;85571;-89
2021/05/14 00:17:59;;;;;;;2.05;0.50;;;13.90;91.50;13.90;98759.00;;;;343245;28;82396;-89
2021/05/14 00:18:12;;;;;;;1.25;0.35;;;13.90;91.50;14.00;98764.00;;;;344672;28;84094;-89
2021/05/14 00:18:24;;;;;;;1.13;0.30;;;13.90;91.70;14.00;98761.00;;;;341492;28;84093;-90
2021/05/14 00:18:36;;;;;;;0.85;0.25;;;13.90;91.80;14.10;98764.00;;;;337658;28;85032;-88
2021/05/14 00:18:48;;;;;;;0.80;0.30;;;13.90;91.70;14.10;98759.00;;;;341258;28;83941;-89
2021/05/14 00:19:00;;;;;;;0.85;0.30;;;13.90;91.70;14.10;98760.00;;;;342788;28;87571;-89
2021/05/14 00:19:11;;;;;;;0.80;0.30;;;14.00;91.60;14.00;98760.00;;;;341649;28;83495;-89
2021/05/14 00:19:23;;;;;;;0.80;0.40;;;13.90;91.60;13.80;98760.00;;;;340050;28;84420;-87
2021/05/14 00:19:35;;;;;;;0.95;0.40;;;13.90;91.90;13.90;98764.00;;;;341576;28;82542;-87
2021/05/14 00:19:47;;;;;;;0.80;0.32;;;13.90;91.60;14.00;98760.00;;;;344102;28;85664;-89
2021/05/14 00:19:59;;;;;;;0.95;0.40;;;13.90;91.60;14.10;98756.00;;;;340315;28;83436;-89
2021/05/14 00:20:11;;;;;;;1.10;0.47;;;13.90;91.60;14.20;98752.00;;;;337645;28;84962;-89
2021/05/14 00:20:23;;;;;;;1.25;0.50;;;13.90;91.60;14.00;98757.00;;;;341675;28;83345;-89
2021/05/14 00:20:35;;;;;;;1.10;0.40;;;13.90;91.70;13.90;98756.00;;;;338782;28;85945;-89
2021/05/14 00:20:47;;;;;;;1.00;0.40;;;13.90;91.60;14.00;98760.00;;;;341801;28;82422;-89
2021/05/14 00:20:59;;;;;;;1.27;0.47;;;13.90;91.60;14.00;98766.00;;;;340669;28;87172;-88
2021/05/14 00:21:11;;;;;;;1.52;0.45;;;13.90;91.60;14.10;98755.00;;;;344162;28;83492;-90
2021/05/14 00:21:23;;;;;;;2.30;0.43;;;13.90;91.50;14.10;98753.00;;;;342584;28;85345;-89
2021/05/14 00:21:35;;;;;;;1.88;0.40;;;13.90;91.60;14.10;98762.00;;;;342937;28;83613;-88
2021/05/14 00:21:47;;;;;;;1.83;0.60;;;13.90;91.60;14.20;98757.00;;;;341643;28;85328;-89
2021/05/14 00:21:59;;;;;;;1.70;0.60;;;14.00;91.70;14.20;98764.00;;;;341442;28;83958;-89
2021/05/14 00:22:11;;;;;;;1.42;0.43;;;14.00;91.70;14.20;98751.00;;;;340209;28;86603;-89
2021/05/14 00:22:23;;;;;;;1.02;0.40;;;14.00;91.70;14.20;98758.00;;;;341635;28;83425;-89
2021/05/14 00:22:34;;;;;;;1.50;0.40;;;13.90;91.70;14.20;98759.00;;;;341591;28;84266;-89
2021/05/14 00:22:46;;;;;;;1.40;0.32;;;13.90;91.60;14.10;98755.00;;;;343084;28;83561;-89
2021/05/14 00:22:58;;;;;;;1.35;0.50;;;13.90;91.70;14.20;98756.00;;;;342933;28;85289;-88
2021/05/14 00:23:11;;;;;;;2.22;0.45;;;14.00;91.70;14.30;98753.00;;;;342749;28;83448;-88
2021/05/14 00:23:23;;;;;;;2.22;0.50;;;14.00;91.70;14.20;98756.00;;;;344307;28;84970;-89
2021/05/14 00:23:35;;;;;;;2.00;0.40;;;14.00;91.70;14.30;98754.00;;;;343091;28;82467;-88
2021/05/14 00:23:47;;;;;;;1.77;0.35;;;14.00;91.70;14.20;98758.00;;;;342752;28;87016;-89
2021/05/14 00:23:59;;;;;;;1.48;0.40;;;14.00;91.70;14.10;98757.00;;;;342956;28;83834;-88
2021/05/14 00:24:11;;;;;;;2.05;0.40;;;14.00;91.70;14.00;98750.00;;;;341985;28;85326;-89
2021/05/14 00:24:23;;;;;;;1.98;0.50;;;14.00;91.60;13.90;98746.00;;;;342962;28;83073;-88
2021/05/14 00:24:35;;;;;;;1.42;0.40;;;14.00;91.60;14.00;98759.00;;;;341537;28;85891;-88
2021/05/14 00:24:47;;;;;;;1.65;0.50;;;14.00;91.60;14.10;98757.00;;;;341734;28;82268;-89
2021/05/14 00:24:59;;;;;;;1.90;0.50;;;14.00;91.60;14.20;98763.00;;;;340256;28;84305;-90
2021/05/14 00:25:11;;;;;;;1.42;0.43;;;14.00;91.80;14.20;98749.00;;;;341624;28;83529;-90
2021/05/14 00:25:23;;;;;;;1.25;0.30;;;14.00;91.50;14.20;98755.00;;;;343146;28;84247;-89
2021/05/14 00:25:35;;;;;;;0.90;0.30;;;14.10;91.50;14.20;98749.00;;;;340355;28;83441;-89
2021/05/14 00:25:46;;;;;;;1.50;0.40;;;14.00;91.50;14.10;98751.00;;;;340350;28;84297;-89
2021/05/14 00:25:59;;;;;;;1.40;0.40;;;14.00;91.50;14.10;98752.00;;;;343003;28;83595;-89
2021/05/14 00:26:11;;;;;;;1.67;0.40;;;14.00;91.50;14.20;98756.00;;;;340247;28;85999;-89
2021/05/14 00:26:22;;;;;;;1.20;0.30;;;14.00;91.50;14.10;98746.00;;;;341644;28;83354;-89
2021/05/14 00:26:34;;;;;;;1.60;0.28;;;14.10;91.60;14.10;98749.00;;;;338854;28;86038;-89
2021/05/14 00:26:47;;;;;;;1.38;0.28;;;14.00;91.60;14.00;98750.00;;;;339851;28;85623;-89
2021/05/14 00:26:58;;;;;;;1.00;0.30;;;14.10;91.60;14.00;98755.00;;;;340241;28;87020;-89
2021/05/14 00:27:10;;;;;;;1.20;0.35;;;14.00;91.60;14.10;98751.00;;;;340794;28;83500;-89
2021/05/14 00:27:22;;;;;;;0.88;0.28;;;14.10;91.70;14.20;98754.00;;;;337668;28;86947;-90
2021/05/14 00:27:34;;;;;;;1.05;0.28;;;14.10;91.60;14.10;98753.00;;;;337688;28;83450;-89
2021/05/14 00:27:46;;;;;;;1.33;0.40;;;14.00;91.70;14.10;98755.00;;;;340292;28;83830;-89
2021/05/14 00:27:58;;;;;;;1.42;0.45;;;14.10;91.70;14.30;98750.00;;;;340149;28;83448;-89
2021/05/14 00:28:10;;;;;;;2.55;0.47;;;14.10;91.70;14.40;98757.00;;;;340304;28;84743;-89
2021/05/14 00:28:22;;;;;;;2.28;0.40;;;14.10;91.70;14.40;98750.00;;;;340309;28;83421;-89
2021/05/14 00:28:33;;;;;;;2.10;0.38;;;14.10;91.70;14.40;98753.00;;;;342968;28;84332;-89
2021/05/14 00:28:45;;;;;;;1.13;0.30;;;14.10;91.70;14.50;98749.00;;;;342944;28;83748;-88
2021/05/14 00:28:57;;;;;;;1.08;0.30;;;14.10;91.60;14.50;98753.00;;;;342989;28;84238;-89
2021/05/14 00:29:09;;;;;;;1.42;0.20;;;14.20;91.60;14.50;98744.00;;;;341537;28;83381;-90
2021/05/14 00:29:20;;;;;;;1.38;0.20;;;14.20;91.60;14.50;98743.00;;;;343014;28;84675;-88
2021/05/14 00:29:32;;;;;;;1.65;0.30;;;14.20;91.60;14.40;98745.00;;;;345464;28;84207;-89
2021/05/14 00:29:44;;;;;;;1.45;0.40;;;14.20;91.60;14.40;98747.00;;;;344277;28;88880;-90
2021/05/14 00:29:56;;;;;;;1.52;0.50;;;14.20;91.60;14.50;98753.00;;;;342731;28;84164;-90
2021/05/14 00:30:08;;;;;;;1.05;0.40;;;14.20;91.60;14.50;98750.00;;;;340854;28;85620;-89
2021/05/14 00:30:21;;;;;;;0.90;0.40;;;14.20;91.60;14.50;98745.00;;;;343107;28;83391;-88
2021/05/14 00:30:33;;;;;;;1.08;0.32;;;14.20;91.50;14.50;98743.00;;;;340208;28;85693;-89
2021/05/14 00:30:44;;;;;;;1.60;0.40;;;14.20;91.40;14.50;98740.00;;;;340398;28;83274;-90
2021/05/14 00:30:56;;;;;;;1.63;0.40;;;14.20;91.40;14.50;98743.00;;;;341451;28;85450;-89
2021/05/14 00:31:08;;;;;;;1.23;0.30;;;14.20;91.30;14.40;98744.00;;;;340248;28;84346;-88
2021/05/14 00:31:20;;;;;;;1.60;0.40;;;14.20;91.30;14.40;98745.00;;;;342867;28;87055;-89
2021/05/14 00:31:32;;;;;;;1.50;0.38;;;14.20;91.30;14.30;98742.00;;;;340426;28;82521;-89
2021/05/14 00:31:44;;;;;;;0.80;0.30;;;14.30;91.30;14.50;98743.00;;;;340368;28;83724;-89
2021/05/14 00:31:56;;;;;;;0.90;0.30;;;14.20;91.30;14.50;98746.00;;;;341473;28;84230;-89
2021/05/14 00:32:09;;;;;;;1.10;0.40;;;14.30;91.30;14.40;98750.00;;;;341600;28;85426;-89
2021/05/14 00:32:20;;;;;;;1.20;0.60;;;14.30;91.30;14.50;98741.00;;;;341788;28;83367;-89
2021/05/14 00:32:33;;;;;;;0.82;0.40;;;14.30;91.30;14.40;98744.00;;;;341685;28;85238;-89
2021/05/14 00:32:45;;;;;;;0.93;0.50;;;14.30;91.30;14.20;98748.00;;;;341562;28;85355;-90
2021/05/14 00:32:57;;;;;;;1.10;0.40;;;14.30;91.30;14.10;98746.00;;;;339538;28;85618;-89
2021/05/14 00:33:08;;;;;;;1.40;0.47;;;14.30;91.30;14.10;98744.00;;;;343370;28;84154;-90
2021/05/14 00:33:20;;;;;;;1.30;0.40;;;14.30;91.30;14.10;98750.00;;;;343013;28;83845;-89
2021/05/14 00:33:32;;;;;;;0.98;0.40;;;14.30;91.20;14.00;98741.00;;;;339106;28;82712;-89
2021/05/14 00:33:44;;;;;;;0.70;0.30;;;14.30;91.20;14.10;98749.00;;;;341670;28;84629;-90
2021/05/14 00:33:55;;;;;;;0.90;0.30;;;14.30;91.30;14.30;98750.00;;;;341468;28;83463;-89
2021/05/14 00:34:07;;;;;;;1.20;0.40;;;14.30;91.30;14.40;98746.00;;;;341743;28;84396;-89
2021/05/14 00:34:19;;;;;;;1.20;0.40;;;14.30;91.30;14.10;98741.00;;;;342021;28;82479;-90
2021/05/14 00:34:31;;;;;;;1.42;0.38;;;14.30;91.40;14.20;98746.00;;;;341716;28;85500;-90
2021/05/14 00:34:42;;;;;;;1.10;0.32;;;14.30;91.40;14.40;98741.00;;;;341765;28;85097;-89
2021/05/14 00:34:54;;;;;;;2.35;0.50;;;14.30;91.30;14.40;98745.00;;;;340475;28;85074;-90
2021/05/14 00:35:07;;;;;;;2.38;0.40;;;14.30;91.40;14.50;98743.00;;;;341526;28;84006;-90
2021/05/14 00:35:19;;;;;;;1.88;0.40;;;14.30;91.40;14.40;98746.00;;;;342780;28;83741;-90
2021/05/14 00:35:31;;;;;;;1.00;0.35;;;14.30;91.40;14.50;98748.00;;;;341671;28;85390;-89
2021/05/14 00:35:43;;;;;;;2.25;0.40;;;14.30;91.40;14.50;98746.00;;;;341582;28;85959;-90
2021/05/14 00:35:55;;;;;;;2.08;0.30;;;14.30;91.40;14.50;98750.00;;;;342178;28;87839;-89
2021/05/14 00:36:06;;;;;;;1.95;0.30;;;14.30;91.30;14.30;98751.00;;;;341669;28;84555;-90
2021/05/14 00:36:18;;;;;;;0.90;0.25;;;14.30;91.30;14.10;98751.00;;;;344391;28;82447;-90
2021/05/14 00:36:30;;;;;;;1.00;0.30;;;14.30;91.40;14.30;98741.00;;;;341718;28;85191;-89
2021/05/14 00:36:42;;;;;;;0.95;0.40;;;14.30;91.40;14.40;98735.00;;;;343075;28;82489;-90
2021/05/14 00:36:54;;;;;;;0.70;0.40;;;14.30;91.40;14.40;98746.00;;;;340259;28;84201;-89
2021/05/14 00:37:06;;;;;;;0.70;0.30;;;14.30;91.40;14.50;98736.00;;;;341616;28;83388;-89
2021/05/14 00:37:18;;;;;;;0.80;0.30;;;14.30;91.30;14.50;98740.00;;;;344204;28;87605;-89
2021/05/14 00:37:29;;;;;;;1.02;0.40;;;14.30;91.30;14.40;98747.00;;;;340276;28;84367;-90
2021/05/14 00:37:41;;;;;;;1.10;0.40;;;14.40;91.40;14.40;98742.00;;;;339097;28;83938;-89
2021/05/14 00:37:53;;;;;;;1.42;0.45;;;14.40;91.40;14.50;98749.00;;;;343037;28;83463;-90
2021/05/14 00:38:05;;;;;;;1.58;0.40;;;14.30;91.40;14.50;98751.00;;;;342888;28;85123;-89
2021/05/14 00:38:16;;;;;;;2.08;0.40;;;14.40;91.40;14.50;98746.00;;;;342804;28;84359;-89
2021/05/14 00:38:28;;;;;;;2.10;0.45;;;14.40;91.40;14.40;98753.00;;;;342818;28;86644;-90
2021/05/14 00:38:40;;;;;;;1.63;0.40;;;14.40;91.50;14.30;98747.00;;;;343071;28;82488;-90
2021/05/14 00:38:52;;;;;;;1.50;0.40;;;14.40;91.50;14.30;98746.00;;;;342801;28;85301;-89
2021/05/14 00:39:04;;;;;;;1.50;0.40;;;14.40;91.50;14.40;98742.00;;;;339813;28;83417;-89
2021/05/14 00:39:16;;;;;;;1.38;0.40;;;14.40;91.40;14.40;98744.00;;;;340292;28;84347;-90
2021/05/14 00:39:27;;;;;;;1.65;0.50;;;14.40;91.30;14.60;98742.00;;;;341195;28;82516;-90
2021/05/14 00:39:39;;;;;;;2.20;0.52;;;14.40;91.30;14.40;98742.00;;;;340305;28;84329;-89
2021/05/14 00:39:51;;;;;;;2.08;0.60;;;14.40;91.40;14.40;98745.00;;;;341615;28;83410;-89
2021/05/14 00:40:04;;;;;;;2.00;0.60;;;14.40;91.30;14.50;98750.00;;;;340172;28;85366;-89
2021/05/14 00:40:16;;;;;;;1.00;0.32;;;14.40;91.30;14.50;98747.00;;;;341623;28;85023;-90
2021/05/14 00:40:29;;;;;;;0.80;0.30;;;14.40;91.30;14.50;98744.00;;;;339009;28;85437;-89
2021/05/14 00:40:40;;;;;;;0.90;0.30;;;14.40;91.40;14.40;98742.00;;;;340304;28;83449;-90
2021/05/14 00:40:52;;;;;;;1.02;0.38;;;14.40;91.30;14.50;98740.00;;;;340150;28;85502;-88
2021/05/14 00:41:04;;;;;;;1.33;0.40;;;14.40;91.30;14.50;98748.00;;;;341557;28;83490;-89
2021/05/14 00:41:16;;;;;;;1.63;0.40;;;14.40;91.30;14.40;98749.00;;;;338788;28;87668;-90
2021/05/14 00:41:28;;;;;;;1.73;0.50;;;14.40;91.40;14.40;98746.00;;;;342656;28;85117;-89
2021/05/14 00:41:39;;;;;;;1.30;0.50;;;14.40;91.40;14.30;98746.00;;;;341625;28;88842;-89
2021/05/14 00:41:51;;;;;;;1.25;0.40;;;14.40;91.30;14.30;98749.00;;;;342579;28;84497;-89
2021/05/14 00:42:04;;;;;;;1.50;0.40;;;14.40;91.30;14.20;98739.00;;;;342283;28;86748;-89
2021/05/14 00:42:16;;;;;;;2.58;0.50;;;14.40;91.30;14.30;98746.00;;;;342818;28;83349;-89
2021/05/14 00:42:27;;;;;;;2.92;0.40;;;14.40;91.40;14.30;98744.00;;;;340220;28;85195;-89
2021/05/14 00:42:39;;;;;;;2.72;0.40;;;14.40;91.40;14.30;98753.00;;;;341590;28;83840;-90
2021/05/14 00:42:51;;;;;;;1.98;0.40;;;14.30;91.40;14.30;98747.00;;;;340063;28;87140;-89
2021/05/14 00:43:03;;;;;;;1.13;0.32;;;14.30;91.40;14.20;98743.00;;;;340337;28;83472;-90
2021/05/14 00:43:15;;;;;;;1.55;0.40;;;14.30;91.40;14.10;98737.00;;;;341607;28;84994;-88
2021/05/14 00:43:27;;;;;;;1.55;0.40;;;14.30;91.40;14.10;98745.00;;;;340320;28;83414;-89
2021/05/14 00:43:38;;;;;;;2.35;0.50;;;14.30;91.40;14.10;98744.00;;;;340322;28;85734;-89
2021/05/14 00:43:50;;;;;;;3.70;0.50;;;14.20;91.40;14.20;98734.00;;;;340100;28;83742;-90
2021/05/14 00:44:34;;;;;;;3.65;0.50;;;14.20;91.50;14.40;98745.00;;;;340133;28;88654;-88
2021/05/14 00:44:46;;;;;;;1.23;0.40;;;14.20;91.60;14.20;98741.00;;;;340345;28;83334;-90
2021/05/14 00:44:58;;;;;;;1.10;0.40;;;14.20;91.60;14.30;98741.00;;;;339890;28;87026;-89
2021/05/14 00:45:11;;;;;;;0.77;0.40;;;14.20;91.60;14.30;98743.00;;;;343541;28;82668;-90
2021/05/14 00:45:22;;;;;;;0.77;0.40;;;14.20;91.60;14.30;98744.00;;;;341721;28;84578;-89
2021/05/14 00:45:34;;;;;;;0.90;0.40;;;14.20;91.60;14.20;98740.00;;;;340213;28;83772;-91
2021/05/14 00:45:46;;;;;;;1.23;0.40;;;14.20;91.60;14.30;98740.00;;;;341574;28;85611;-89
2021/05/14 00:46:00;;;;;;;1.08;0.30;;;14.20;91.60;14.20;98744.00;;;;340119;28;82551;-90
2021/05/14 00:46:12;;;;;;;1.08;0.43;;;14.20;91.60;14.30;98743.00;;;;341604;28;84846;-91
2021/05/14 00:46:25;;;;;;;1.30;0.57;;;14.20;91.70;14.40;98746.00;;;;340341;28;83409;-89
2021/05/14 00:46:37;;;;;;;1.60;0.60;;;14.20;91.90;14.40;98737.00;;;;340315;28;84399;-90
2021/05/14 00:46:48;;;;;;;1.73;0.55;;;14.30;91.70;14.30;98740.00;;;;342947;28;84777;-89
2021/05/14 00:47:06;;;;;;;1.67;0.55;;;14.30;91.60;14.20;98735.00;;;;341521;28;87396;-90
2021/05/14 00:47:19;;;;;;;1.42;0.30;;;14.30;91.60;14.40;98733.00;;;;340087;28;85736;-89
2021/05/14 00:47:31;;;;;;;1.20;0.22;;;14.30;91.50;14.40;98732.00;;;;340025;28;84503;-89
2021/05/14 00:47:43;;;;;;;2.42;0.40;;;14.30;91.50;14.40;98743.00;;;;340442;28;83356;-90
2021/05/14 00:47:54;;;;;;;2.72;0.57;;;14.30;91.60;14.40;98738.00;;;;342927;28;87611;-89
2021/05/14 00:48:07;;;;;;;3.17;0.65;;;14.30;91.60;14.40;98735.00;;;;340245;28;83748;-89
2021/05/14 00:48:19;;;;;;;2.33;0.65;;;14.30;91.60;14.50;98733.00;;;;341691;28;85707;-90
2021/05/14 00:48:31;;;;;;;1.60;0.55;;;14.30;91.60;14.50;98734.00;;;;338717;28;83990;-89
2021/05/14 00:48:42;;;;;;;1.67;0.55;;;14.30;91.60;14.50;98735.00;;;;340330;28;85472;-90
2021/05/14 00:48:54;;;;;;;1.20;0.50;;;14.40;91.60;14.50;98734.00;;;;341681;28;83619;-89
2021/05/14 00:49:06;;;;;;;1.40;0.40;;;14.40;91.60;14.50;98735.00;;;;341701;28;85384;-89
2021/05/14 00:49:18;;;;;;;1.45;0.43;;;14.40;91.60;14.40;98735.00;;;;341590;28;82538;-90
2021/05/14 00:49:30;;;;;;;1.67;0.50;;;14.40;91.60;14.30;98736.00;;;;343048;28;85574;-90
2021/05/14 00:49:45;;;;;;;1.33;0.60;;;14.40;91.60;14.20;98736.00;;;;341548;28;83396;-89
2021/05/14 00:49:57;;;;;;;1.40;0.50;;;14.40;91.70;14.30;98737.00;;;;341468;28;85776;-89
2021/05/14 00:50:10;;;;;;;1.30;0.40;;;14.40;91.60;14.50;98743.00;;;;340292;28;84588;-90
2021/05/14 00:50:21;;;;;;;3.00;0.60;;;14.40;91.60;14.50;98731.00;;;;342962;28;87528;-89
2021/05/14 00:50:33;;;;;;;3.47;0.60;;;14.40;91.60;14.60;98731.00;;;;341579;28;83425;-90
2021/05/14 00:50:45;;;;;;;2.65;0.50;;;14.40;91.60;14.70;98731.00;;;;341635;28;85094;-89
2021/05/14 00:50:57;;;;;;;1.60;0.50;;;14.40;91.60;14.70;98732.00;;;;341379;28;83605;-89
2021/05/14 00:51:08;;;;;;;1.35;0.40;;;14.40;91.60;14.80;98742.00;;;;340957;28;85713;-90
2021/05/14 00:51:20;;;;;;;2.05;0.40;;;14.50;91.60;14.70;98737.00;;;;341493;28;83889;-90
2021/05/14 00:51:32;;;;;;;1.85;0.40;;;14.50;91.50;14.60;98734.00;;;;343020;28;84926;-90
2021/05/14 00:51:45;;;;;;;1.95;0.55;;;14.50;91.50;14.60;98735.00;;;;341649;28;83216;-90
2021/05/14 00:51:58;;;;;;;2.40;0.70;;;14.50;91.70;14.50;98734.00;;;;343367;28;86902;-90
2021/05/14 00:52:13;;;;;;;2.10;0.57;;;14.50;91.50;14.50;98735.00;;;;343071;28;82410;-90
2021/05/14 00:52:24;;;;;;;0.95;0.30;;;14.50;91.40;14.60;98738.00;;;;340105;28;84302;-90
2021/05/14 00:52:36;;;;;;;1.85;0.30;;;14.50;91.50;14.60;98740.00;;;;342978;28;84010;-90
2021/05/14 00:52:48;;;;;;;1.83;0.32;;;14.50;91.40;14.70;98734.00;;;;342869;28;83925;-90
2021/05/14 00:53:00;;;;;;;1.75;0.40;;;14.50;91.40;14.60;98733.00;;;;341319;28;83692;-89
2021/05/14 00:53:12;;;;;;;0.98;0.40;;;14.50;91.50;14.60;98737.00;;;;341566;28;85664;-90
2021/05/14 00:53:24;;;;;;;1.20;0.40;;;14.50;91.50;14.60;98738.00;;;;343010;28;83195;-89
2021/05/14 00:53:35;;;;;;;2.15;0.47;;;14.50;91.50;14.50;98732.00;;;;340318;28;85336;-90
2021/05/14 00:53:47;;;;;;;2.15;0.55;;;14.50;91.50;14.50;98740.00;;;;341609;28;83242;-89
2021/05/14 00:53:59;;;;;;;2.13;0.60;;;14.50;91.50;14.60;98738.00;;;;341695;28;85361;-88
2021/05/14 00:54:11;;;;;;;1.60;0.60;;;14.50;91.50;14.70;98746.00;;;;344950;28;82458;-89
2021/05/14 00:54:23;;;;;;;1.52;0.47;;;14.50;91.50;14.80;98738.00;;;;342827;28;85946;-90
2021/05/14 00:54:37;;;;;;;1.60;0.40;;;14.60;91.50;14.80;98742.00;;;;341638;28;83490;-89
2021/05/14 00:54:49;;;;;;;1.90;0.50;;;14.50;91.50;14.60;98740.00;;;;341408;28;87083;-90